Barrington Passage, Canada
Current Conditions -  °F | °C
As of 3:00 AM on Thursday 27 Nov 2014 (Local Time) from CYQI Reporting Station
Light Rain Light Rain  
Wind Chill: 32°   Ceiling: 400
Heat Index: 41°   Visibility: 5mi
Dew Point: 41°   Wind: 17mph
Humidity: 100%   Direction: 80°E
Pressure: 29.42"   Gusts: 24mph
Location:  43.52°N, 65.6°W
Report Text: CYQI 270700Z 08015G21KT 5SM -RA BR OVC004 05/05 A2942 RMK SF8 PRESFR SLP963
Loading
Personal Weather Stations






























Interactive Weather Map New forecast layout! Learn more

10-Day Weather Forecast

Advertisements
Track Severe Weather on mobile